Nearby METAR Reports

 

EGNV - Tees-Side, United Kingdom
Distance from station: W 8mi, 13km
Updated: 18/10/2017 20:50
Mostly cloudy
Mostly cloudy
 Wind from SE
Wind: SE 7 mph , 11 km/h
Temperature: 12°C
Dew Point: 9°C
Humidity: 82%
Barometer: 1010 hPa
Clouds: Mostly cloudy
Visibility: 6 miles , 10 km
Cloud details: Mostly cloudy 945 m
2017/10/18 19:50 EGNV 181950Z 13006KT 9999 BKN031 12/09 Q1010
EGXE - Leeming Raf, United Kingdom
Distance from station: SW 21mi, 34km
Updated: 18/10/2017 19:50
Mostly cloudy
Mostly cloudy
 Wind from SE
Wind: SE 6 mph , 9 km/h
Temperature: 12°C
Dew Point: 9°C
Humidity: 82%
Barometer: 1010 hPa
Clouds: Mostly cloudy
Visibility: 6 miles , 10 km
Cloud details: Few Clouds 762 m
Mostly cloudy 884 m
2017/10/18 18:50 EGXE 181850Z AUTO 13005KT 9999 FEW025/// BKN029/// 12/09 Q1010
 
EGXZ - Topcliffe Raf, United Kingdom
Distance from station: SSW 24mi, 38km
Updated: 18/10/2017 19:50
Mostly cloudy
Mostly cloudy
 Wind from ESE
Wind: ESE 8 mph , 13 km/h
Temperature: 12°C
Dew Point: 10°C
Humidity: 88%
Barometer: 1011 hPa
Clouds: Mostly cloudy
Visibility: 6 miles , 10 km
Cloud details: Mostly cloudy 884 m
Mostly cloudy 1097 m
2017/10/18 18:50 EGXZ 181850Z AUTO 11007KT 9999 BKN029/// BKN036/// 12/10 Q1011
EGXD - Dishforth Raf, United Kingdom
Distance from station: SSW 29mi, 46km
Updated: 06/06/2016 10:50
NOT Current
Clear
Clear
 Wind from SSE
Wind: SSE 5 mph , 7 km/h
Temperature: 18°C
Dew Point: 11°C
Humidity: 64%
Barometer: 1023 hPa
Clouds: Clear
Visibility: 6 miles , 10 km
2016/06/06 09:50 EGXD 060950Z AUTO 16004KT 9999 // NCD 18/11 Q1023
 
EGXU - Linton-On-Ouse R, United Kingdom
Distance from station: S 33mi, 53km
Updated: 18/10/2017 19:50
Overcast
Overcast
 Wind from E
Wind: E 8 mph , 13 km/h
Temperature: 12°C
Dew Point: 9°C
Humidity: 82%
Barometer: 1011 hPa
Clouds: Overcast
Visibility: 6 miles , 10 km
Cloud details: Overcast 823 m
2017/10/18 18:50 EGXU 181850Z AUTO 10007KT 9999 // OVC027/// 12/09 Q1011
EGNT - Newcastle, United Kingdom
Distance from station: NNW 39mi, 63km
Updated: 18/10/2017 20:50
Mostly cloudy
Mostly cloudy
 Wind from ESE
Wind: ESE 7 mph , 11 km/h
Temperature: 11°C
Dew Point: 10°C
Humidity: 94%
Barometer: 1010 hPa
Clouds: Mostly cloudy
Visibility: 6 miles , 10 km
Cloud details: Partly cloudy 213 m
Mostly cloudy 762 m
2017/10/18 19:50 EGNT 181950Z 12006KT 9999 SCT007 BKN025 11/10 Q1010
 
EGNM - Leeds And Bradfo, United Kingdom
Distance from station: SSW 49mi, 79km
Updated: 18/10/2017 20:50
Mostly cloudy
Mostly cloudy
 Wind from SE
Wind: SE 7 mph , 11 km/h
Temperature: 10°C
Wind Chill: 8°C
Dew Point: 8°C
Humidity: 88%
Barometer: 1010 hPa
Clouds: Mostly cloudy
Visibility: 6 miles , 10 km
Cloud details: Mostly cloudy 488 m
2017/10/18 19:50 EGNM 181950Z 13006KT 100V170 9999 BKN016 10/08 Q1010